Time;durP1;ratioP1;P1;durP2;ratioP2;P2;SDS_P1;SDS_P2;PMS_P1;PMS_P2;Temp;Humidity;BMP_temperature;BMP_pressure;BME280_temperature;BME280_humidity;BME280_pressure;Samples;Min_cycle;Max_cycle;Signal;HPM_P1;HPM_P2
2023/12/06 00:00:36;;;;;;;35.50;20.90;;;3.30;90.10;;;;;;5134256;27;20069;-35
2023/12/06 00:03:03;;;;;;;34.28;19.80;;;3.30;90.10;;;;;;5133730;27;20080;-32
2023/12/06 00:05:29;;;;;;;32.05;18.50;;;3.30;90.10;;;;;;5134082;27;20048;-33
2023/12/06 00:07:55;;;;;;;34.00;19.02;;;3.30;90.10;;;;;;5133799;27;20027;-34
2023/12/06 00:10:20;;;;;;;33.65;19.40;;;3.40;90.10;;;;;;5134019;27;20519;-34
2023/12/06 00:12:46;;;;;;;33.30;18.38;;;3.40;90.10;;;;;;5133921;27;20057;-34
2023/12/06 00:15:11;;;;;;;31.15;18.92;;;3.40;90.00;;;;;;5134227;27;20042;-33
2023/12/06 00:17:37;;;;;;;33.05;19.63;;;3.40;90.00;;;;;;5133533;27;20030;-34
2023/12/06 00:20:03;;;;;;;31.75;19.50;;;3.40;90.00;;;;;;5133612;27;20039;-33
2023/12/06 00:22:28;;;;;;;31.42;19.02;;;3.40;90.00;;;;;;5133272;27;20027;-34
2023/12/06 00:24:54;;;;;;;31.23;19.48;;;3.40;90.00;;;;;;5133612;27;20031;-34
2023/12/06 00:27:20;;;;;;;34.65;20.35;;;3.40;90.00;;;;;;5133172;27;20076;-34
2023/12/06 00:29:46;;;;;;;27.20;17.75;;;3.40;90.00;;;;;;5133669;27;20360;-34
2023/12/06 00:32:11;;;;;;;27.13;16.77;;;3.40;90.10;;;;;;5133113;27;20135;-33
2023/12/06 00:34:37;;;;;;;28.70;16.67;;;3.40;90.10;;;;;;5132388;27;20019;-33
2023/12/06 00:37:02;;;;;;;30.60;18.88;;;3.50;90.10;;;;;;5133243;27;20023;-33
2023/12/06 00:39:28;;;;;;;29.25;17.77;;;3.50;90.00;;;;;;5131565;27;20019;-33
2023/12/06 00:41:54;;;;;;;28.38;17.90;;;3.50;90.00;;;;;;5133127;27;20055;-33
2023/12/06 00:44:19;;;;;;;30.27;18.17;;;3.50;90.00;;;;;;5133030;27;20027;-33
2023/12/06 00:46:45;;;;;;;26.52;17.13;;;3.50;90.00;;;;;;5133231;27;20378;-34
2023/12/06 00:49:11;;;;;;;28.27;18.27;;;3.40;90.00;;;;;;5133069;27;20076;-32
2023/12/06 00:51:37;;;;;;;30.05;18.08;;;3.40;90.00;;;;;;5132815;27;20023;-33
2023/12/06 00:54:02;;;;;;;28.42;17.88;;;3.50;90.00;;;;;;5131716;27;20475;-33
2023/12/06 00:56:28;;;;;;;27.90;17.88;;;3.50;90.00;;;;;;5132697;27;20031;-33
2023/12/06 00:58:54;;;;;;;33.05;18.80;;;3.50;90.00;;;;;;5132618;27;20378;-33
2023/12/06 01:01:19;;;;;;;26.83;17.13;;;3.50;90.00;;;;;;5132902;27;20031;-33
2023/12/06 01:03:45;;;;;;;31.02;18.38;;;3.40;90.00;;;;;;5132860;27;20015;-34
2023/12/06 01:06:10;;;;;;;25.83;16.67;;;3.50;90.00;;;;;;5132673;27;20044;-33
2023/12/06 01:08:36;;;;;;;25.90;15.65;;;3.50;90.10;;;;;;5132654;27;20030;-34
2023/12/06 01:11:01;;;;;;;25.00;16.55;;;3.50;90.00;;;;;;5132417;27;20027;-33
2023/12/06 01:13:28;;;;;;;29.58;18.52;;;3.50;90.10;;;;;;5132869;27;20038;-33
2023/12/06 01:15:53;;;;;;;27.50;17.05;;;3.50;90.00;;;;;;5132602;27;20110;-33
2023/12/06 01:18:19;;;;;;;30.35;18.33;;;3.50;90.30;;;;;;5132514;27;20054;-33
2023/12/06 01:20:44;;;;;;;27.45;17.58;;;3.50;90.10;;;;;;5132867;27;20027;-33
2023/12/06 01:23:10;;;;;;;24.05;16.05;;;3.60;90.10;;;;;;5132285;27;20098;-33
2023/12/06 01:25:35;;;;;;;29.10;17.52;;;3.60;90.10;;;;;;5132469;27;20058;-34
2023/12/06 01:28:01;;;;;;;27.25;17.13;;;3.60;90.10;;;;;;5132190;27;20064;-34
2023/12/06 01:30:27;;;;;;;26.98;16.73;;;3.70;90.10;;;;;;5130910;27;20046;-34
2023/12/06 01:32:52;;;;;;;27.48;17.30;;;3.70;90.10;;;;;;5132056;27;20524;-33
2023/12/06 01:35:18;;;;;;;25.27;16.25;;;3.70;90.10;;;;;;5132408;27;20375;-34
2023/12/06 01:37:43;;;;;;;27.10;17.42;;;3.80;90.20;;;;;;5131924;27;20382;-35
2023/12/06 01:40:09;;;;;;;32.75;19.75;;;3.80;90.20;;;;;;5132372;27;20031;-34
2023/12/06 01:42:35;;;;;;;27.83;17.23;;;3.80;90.10;;;;;;5131912;27;20069;-34
2023/12/06 01:45:01;;;;;;;27.42;17.25;;;3.80;90.10;;;;;;5130992;28;20066;-33
2023/12/06 01:47:29;;;;;;;30.13;17.95;;;3.80;90.20;;;;;;5138200;27;20453;-33
2023/12/06 01:49:57;;;;;;;26.65;16.98;;;3.80;90.20;;;;;;5139104;27;20156;-35
2023/12/06 01:52:23;;;;;;;26.98;17.10;;;3.90;90.20;;;;;;5138804;27;20034;-32
2023/12/06 01:54:49;;;;;;;29.75;18.25;;;3.90;90.20;;;;;;5139312;27;20031;-34
2023/12/06 01:57:16;;;;;;;31.77;18.10;;;3.90;90.20;;;;;;5139395;27;20023;-34
2023/12/06 01:59:43;;;;;;;32.88;19.00;;;3.90;90.20;;;;;;5138743;27;20026;-34
2023/12/06 02:02:09;;;;;;;26.63;16.73;;;3.90;90.20;;;;;;5138208;27;20474;-32
2023/12/06 02:04:36;;;;;;;29.30;18.52;;;3.90;90.20;;;;;;5138368;27;20018;-33
2023/12/06 02:07:01;;;;;;;28.45;17.42;;;4.00;90.30;;;;;;5138768;27;20514;-34
2023/12/06 02:09:27;;;;;;;28.02;17.40;;;4.00;90.20;;;;;;5139073;27;20084;-34
2023/12/06 02:11:53;;;;;;;28.85;17.33;;;4.00;90.20;;;;;;5137680;27;20083;-31
2023/12/06 02:14:19;;;;;;;28.77;16.90;;;4.00;90.20;;;;;;5138944;27;20462;-34
2023/12/06 02:16:45;;;;;;;28.80;17.60;;;4.00;90.20;;;;;;5139147;27;20106;-35
2023/12/06 02:19:18;;;;;;;30.25;16.83;;;4.10;90.20;;;;;;5138987;27;20483;-34
2023/12/06 02:21:44;;;;;;;28.77;16.93;;;4.10;90.20;;;;;;5138928;27;20027;-33
2023/12/06 02:24:12;;;;;;;29.48;18.50;;;4.10;90.20;;;;;;5138609;27;20023;-35
2023/12/06 02:26:37;;;;;;;26.75;16.45;;;4.10;90.30;;;;;;5138671;27;20358;-35
2023/12/06 02:29:03;;;;;;;29.20;17.15;;;4.10;90.20;;;;;;5138834;27;20015;-34
2023/12/06 02:31:28;;;;;;;29.27;17.55;;;4.10;90.20;;;;;;5138661;27;20050;-34
2023/12/06 02:33:54;;;;;;;26.88;16.73;;;4.10;90.30;;;;;;5139020;27;20030;-34
2023/12/06 02:36:22;;;;;;;23.65;15.40;;;4.10;90.30;;;;;;5138647;27;20510;-34
2023/12/06 02:38:48;;;;;;;26.73;17.38;;;4.20;90.30;;;;;;5138496;27;20023;-34
2023/12/06 02:41:16;;;;;;;26.95;16.98;;;4.20;90.30;;;;;;5138627;27;20038;-34
2023/12/06 02:43:43;;;;;;;31.42;18.23;;;4.20;90.20;;;;;;5138657;27;20108;-33
2023/12/06 02:46:09;;;;;;;28.92;17.65;;;4.20;90.20;;;;;;5137427;27;20019;-34
2023/12/06 02:48:35;;;;;;;31.70;19.02;;;4.20;90.30;;;;;;5138080;27;20026;-34
2023/12/06 02:51:00;;;;;;;29.20;17.77;;;4.20;90.30;;;;;;5138547;27;20026;-35
2023/12/06 02:53:26;;;;;;;26.27;16.90;;;4.20;90.60;;;;;;5138337;27;20102;-34
2023/12/06 02:55:51;;;;;;;28.65;17.73;;;4.20;90.30;;;;;;5138542;27;20084;-35
2023/12/06 02:58:17;;;;;;;27.77;17.08;;;4.20;90.40;;;;;;5133795;27;20038;-34
2023/12/06 03:00:42;;;;;;;27.77;17.48;;;4.20;90.40;;;;;;5135281;27;20038;-34
2023/12/06 03:03:08;;;;;;;27.73;16.92;;;4.20;90.40;;;;;;5135017;27;20062;-34
2023/12/06 03:05:33;;;;;;;28.52;17.67;;;4.20;90.40;;;;;;5135055;27;20130;-34
2023/12/06 03:07:59;;;;;;;28.15;18.25;;;4.20;90.40;;;;;;5134905;27;20011;-33
2023/12/06 03:10:24;;;;;;;25.35;15.30;;;4.20;90.40;;;;;;5135058;27;20113;-34
2023/12/06 03:12:50;;;;;;;27.42;16.88;;;4.30;90.50;;;;;;5134898;27;20479;-34
2023/12/06 03:15:15;;;;;;;28.90;17.85;;;4.20;90.40;;;;;;5135102;27;20034;-36
2023/12/06 03:17:41;;;;;;;30.15;17.55;;;4.30;90.50;;;;;;5134833;27;20030;-35
2023/12/06 03:20:08;;;;;;;28.67;17.75;;;4.20;90.40;;;;;;5134705;27;20479;-34
2023/12/06 03:22:34;;;;;;;28.10;17.63;;;4.20;90.50;;;;;;5135058;27;20030;-34
2023/12/06 03:24:59;;;;;;;29.73;16.73;;;4.20;90.50;;;;;;5134871;27;20027;-34
2023/12/06 03:27:25;;;;;;;27.70;17.58;;;4.30;90.50;;;;;;5134785;27;20104;-34
2023/12/06 03:29:50;;;;;;;26.42;16.05;;;4.20;90.50;;;;;;5134419;27;20027;-35
2023/12/06 03:32:16;;;;;;;30.30;16.92;;;4.30;90.60;;;;;;5134414;27;20055;-35
2023/12/06 03:34:41;;;;;;;28.50;17.98;;;4.30;90.50;;;;;;5134294;27;20019;-33
2023/12/06 03:37:08;;;;;;;27.67;17.15;;;4.40;90.60;;;;;;5134382;27;20019;-33
2023/12/06 03:39:33;;;;;;;27.25;17.42;;;4.40;90.90;;;;;;5134428;27;20023;-33
2023/12/06 03:41:59;;;;;;;26.45;16.08;;;4.40;90.60;;;;;;5134434;27;20023;-33
2023/12/06 03:44:25;;;;;;;26.58;16.55;;;4.40;90.60;;;;;;5132608;27;20429;-32
2023/12/06 03:46:50;;;;;;;28.13;17.30;;;4.40;90.60;;;;;;5134516;27;20459;-33
2023/12/06 03:49:16;;;;;;;24.70;16.60;;;4.40;90.60;;;;;;5134393;27;20389;-32
2023/12/06 03:51:42;;;;;;;29.50;17.88;;;4.40;90.60;;;;;;5134270;27;20026;-33
2023/12/06 03:54:07;;;;;;;30.35;18.52;;;4.40;90.60;;;;;;5134038;27;20110;-35
2023/12/06 03:56:33;;;;;;;27.65;17.88;;;4.40;90.60;;;;;;5134042;27;20023;-33
2023/12/06 03:58:59;;;;;;;26.13;16.58;;;4.40;90.60;;;;;;5133939;27;20015;-33
2023/12/06 04:01:24;;;;;;;26.58;16.80;;;4.40;90.70;;;;;;5134247;27;20054;-32
2023/12/06 04:03:50;;;;;;;26.20;16.13;;;4.40;90.70;;;;;;5133921;27;20012;-33
2023/12/06 04:06:15;;;;;;;29.48;17.58;;;4.50;90.70;;;;;;5133956;27;20019;-33
2023/12/06 04:08:41;;;;;;;30.95;17.02;;;4.50;90.70;;;;;;5133376;27;20019;-32
2023/12/06 04:11:06;;;;;;;27.48;17.17;;;4.50;90.70;;;;;;5132442;27;20023;-32
2023/12/06 04:13:32;;;;;;;28.70;17.02;;;4.50;90.70;;;;;;5133594;27;20397;-34
2023/12/06 04:15:58;;;;;;;25.52;16.58;;;4.50;90.70;;;;;;5134081;27;20435;-33
2023/12/06 04:18:23;;;;;;;30.63;17.55;;;4.50;90.80;;;;;;5133702;27;20099;-32
2023/12/06 04:20:49;;;;;;;26.17;17.00;;;4.50;90.70;;;;;;5132502;27;20494;-33
2023/12/06 04:23:14;;;;;;;28.48;18.13;;;4.50;90.70;;;;;;5133550;27;20080;-33
2023/12/06 04:25:40;;;;;;;26.45;17.50;;;4.50;90.80;;;;;;5133648;27;20058;-33
2023/12/06 04:28:05;;;;;;;28.95;17.63;;;4.50;90.80;;;;;;5133404;27;20420;-33
2023/12/06 04:30:31;;;;;;;27.42;16.80;;;4.50;90.80;;;;;;5133450;27;20114;-33
2023/12/06 04:32:56;;;;;;;25.00;16.65;;;4.50;90.80;;;;;;5133885;27;20049;-33
2023/12/06 04:35:22;;;;;;;26.17;16.67;;;4.50;90.90;;;;;;5133291;27;20026;-33
2023/12/06 04:37:48;;;;;;;25.05;15.82;;;4.50;90.90;;;;;;5133338;27;20023;-33
2023/12/06 04:40:13;;;;;;;27.67;16.88;;;4.60;90.90;;;;;;5133209;27;20027;-33
2023/12/06 04:42:39;;;;;;;24.77;16.27;;;4.60;90.90;;;;;;5133186;27;20475;-32
2023/12/06 04:45:05;;;;;;;24.02;14.85;;;4.50;90.90;;;;;;5133317;27;20023;-33
2023/12/06 04:47:30;;;;;;;24.10;14.77;;;4.50;90.90;;;;;;5132963;27;20019;-33
2023/12/06 04:49:56;;;;;;;25.48;15.60;;;4.50;90.90;;;;;;5132911;27;20024;-32
2023/12/06 04:52:22;;;;;;;23.05;14.85;;;4.50;90.90;;;;;;5133289;27;20018;-32
2023/12/06 04:54:48;;;;;;;23.02;14.63;;;4.50;90.90;;;;;;5132843;27;20079;-33
2023/12/06 04:57:14;;;;;;;23.10;15.13;;;4.60;91.00;;;;;;5132720;27;20023;-32
2023/12/06 04:59:40;;;;;;;23.42;14.73;;;4.60;91.00;;;;;;5132695;27;20019;-32
2023/12/06 05:02:06;;;;;;;23.80;14.88;;;4.60;91.00;;;;;;5132952;27;20022;-33
2023/12/06 05:04:31;;;;;;;21.23;13.80;;;4.60;91.00;;;;;;5132996;27;20011;-32
2023/12/06 05:06:57;;;;;;;21.42;13.27;;;4.60;91.00;;;;;;5133049;27;20022;-34
2023/12/06 05:09:23;;;;;;;21.42;13.68;;;4.70;91.00;;;;;;5132994;27;20023;-31
2023/12/06 05:11:48;;;;;;;20.45;14.15;;;4.70;91.00;;;;;;5132797;27;20034;-40
2023/12/06 05:14:14;;;;;;;22.27;15.30;;;4.70;91.00;;;;;;5132476;27;20087;-32
2023/12/06 05:16:39;;;;;;;22.13;13.77;;;4.70;91.00;;;;;;5132565;27;20044;-33
2023/12/06 05:19:06;;;;;;;22.20;13.75;;;4.80;91.00;;;;;;5132119;27;20034;-32
2023/12/06 05:21:32;;;;;;;21.77;13.90;;;4.80;91.00;;;;;;5132201;27;20148;-33
2023/12/06 05:23:57;;;;;;;19.33;13.60;;;4.70;91.00;;;;;;5132580;27;20019;-33
2023/12/06 05:26:25;;;;;;;20.05;12.90;;;4.80;91.00;;;;;;5132444;27;20509;-31
2023/12/06 05:28:51;;;;;;;19.95;13.13;;;4.70;90.90;;;;;;5132789;27;20027;-32
2023/12/06 05:31:17;;;;;;;21.90;13.35;;;4.70;91.00;;;;;;5132401;27;20388;-34
2023/12/06 05:33:43;;;;;;;18.17;13.13;;;4.70;91.00;;;;;;5130930;27;20122;-32
2023/12/06 05:36:08;;;;;;;19.40;13.10;;;4.70;91.10;;;;;;5132494;27;20372;-34
2023/12/06 05:38:34;;;;;;;20.92;13.68;;;4.70;91.10;;;;;;5132064;27;20069;-31
2023/12/06 05:41:00;;;;;;;18.25;11.93;;;4.80;91.10;;;;;;5132444;27;20027;-33
2023/12/06 05:43:26;;;;;;;17.83;11.80;;;4.70;91.10;;;;;;5132639;27;20023;-33
2023/12/06 05:45:51;;;;;;;16.92;11.82;;;4.70;91.10;;;;;;5130864;28;20358;-33
2023/12/06 05:48:17;;;;;;;15.35;10.15;;;4.70;91.10;;;;;;5132036;27;20076;-33
2023/12/06 05:50:42;;;;;;;16.50;11.23;;;4.70;91.10;;;;;;5132017;27;20046;-33
2023/12/06 05:53:08;;;;;;;15.82;11.25;;;4.80;91.10;;;;;;5132216;27;20032;-34
2023/12/06 05:55:34;;;;;;;15.07;11.32;;;4.80;91.10;;;;;;5132346;27;20031;-32
2023/12/06 05:57:59;;;;;;;14.50;9.95;;;4.80;91.20;;;;;;5132081;27;20382;-33
2023/12/06 06:00:25;;;;;;;16.20;10.90;;;4.80;91.20;;;;;;5132034;27;20339;-33
2023/12/06 06:02:52;;;;;;;13.90;9.77;;;4.80;91.20;;;;;;5131924;27;20015;-33
2023/12/06 06:05:18;;;;;;;14.07;10.30;;;4.80;91.20;;;;;;5131629;27;20039;-34
2023/12/06 06:07:44;;;;;;;14.57;10.05;;;4.90;91.20;;;;;;5131271;27;20023;-33
2023/12/06 06:10:10;;;;;;;13.75;10.05;;;4.90;91.20;;;;;;5130781;27;20041;-33
2023/12/06 06:12:35;;;;;;;13.07;9.52;;;4.90;91.20;;;;;;5131032;27;20468;-33
2023/12/06 06:15:01;;;;;;;14.25;10.68;;;4.90;91.20;;;;;;5130540;27;20485;-33
2023/12/06 06:17:27;;;;;;;12.98;9.75;;;4.80;91.20;;;;;;5130815;27;20025;-34
2023/12/06 06:19:52;;;;;;;14.25;10.23;;;4.80;91.20;;;;;;5130435;27;20110;-34
2023/12/06 06:22:18;;;;;;;15.90;10.68;;;4.80;91.20;;;;;;5130853;27;20084;-33
2023/12/06 06:24:44;;;;;;;13.77;9.55;;;4.80;91.20;;;;;;5130201;27;20463;-33
2023/12/06 06:27:09;;;;;;;16.80;11.05;;;4.80;91.30;;;;;;5130431;27;20106;-32
2023/12/06 06:29:36;;;;;;;17.10;12.15;;;4.90;91.30;;;;;;5130525;27;20404;-33
2023/12/06 06:32:01;;;;;;;17.95;11.75;;;4.90;91.30;;;;;;5130593;27;20047;-32
2023/12/06 06:34:27;;;;;;;15.85;11.50;;;4.90;91.30;;;;;;5133972;27;20034;-34
2023/12/06 06:36:52;;;;;;;18.35;12.30;;;4.90;91.40;;;;;;5134380;27;20455;-32
2023/12/06 06:39:18;;;;;;;17.23;12.07;;;4.90;91.40;;;;;;5134975;27;20023;-35
2023/12/06 06:41:43;;;;;;;18.02;12.57;;;4.90;91.40;;;;;;5135367;27;20462;-32
2023/12/06 06:44:09;;;;;;;18.45;12.07;;;4.90;91.40;;;;;;5135421;27;20038;-32
2023/12/06 06:46:34;;;;;;;16.88;12.05;;;4.90;91.40;;;;;;5135301;27;20023;-33
2023/12/06 06:49:01;;;;;;;18.88;12.60;;;5.00;91.40;;;;;;5135066;27;20463;-33
2023/12/06 06:51:33;;;;;;;21.50;14.45;;;5.00;91.40;;;;;;5134801;27;20071;-32
2023/12/06 06:53:59;;;;;;;21.97;13.97;;;5.00;91.40;;;;;;5135393;27;20026;-31
2023/12/06 06:56:24;;;;;;;19.48;13.80;;;5.00;91.40;;;;;;5134853;27;20616;-34
2023/12/06 06:58:51;;;;;;;20.02;13.05;;;5.10;91.40;;;;;;5135296;27;20034;-32
2023/12/06 07:01:18;;;;;;;18.17;12.73;;;5.00;91.40;;;;;;5134905;27;20019;-34
2023/12/06 07:03:44;;;;;;;18.25;11.63;;;5.10;91.50;;;;;;5135451;27;20092;-33
2023/12/06 07:06:09;;;;;;;19.27;13.48;;;5.10;91.50;;;;;;5134983;27;20011;-32
2023/12/06 07:08:35;;;;;;;17.17;12.27;;;5.10;91.50;;;;;;5134814;27;20054;-31
2023/12/06 07:11:01;;;;;;;19.42;12.18;;;5.10;91.50;;;;;;5135042;27;20043;-33
2023/12/06 07:13:26;;;;;;;16.27;11.98;;;5.10;91.50;;;;;;5134915;27;20023;-31
2023/12/06 07:15:52;;;;;;;19.02;11.65;;;5.10;91.50;;;;;;5134823;27;20076;-33
2023/12/06 07:18:18;;;;;;;18.33;12.10;;;5.10;91.50;;;;;;5134742;27;20057;-34
2023/12/06 07:20:44;;;;;;;18.00;11.27;;;5.10;91.50;;;;;;5135094;27;20450;-35
2023/12/06 07:23:10;;;;;;;14.30;10.02;;;5.20;91.50;;;;;;5135463;27;20023;-33
2023/12/06 07:25:35;;;;;;;14.95;10.57;;;5.20;91.50;;;;;;5134916;27;20024;-34
2023/12/06 07:28:02;;;;;;;14.82;10.48;;;5.30;91.50;;;;;;5135269;27;20074;-34
2023/12/06 07:30:28;;;;;;;15.38;10.35;;;5.40;91.50;;;;;;5134797;27;20490;-34
2023/12/06 07:32:53;;;;;;;14.52;10.63;;;5.40;91.40;;;;;;5134916;27;20019;-35
2023/12/06 07:35:20;;;;;;;14.30;10.50;;;5.50;91.40;;;;;;5134948;27;20076;-35
2023/12/06 07:37:45;;;;;;;19.92;11.55;;;5.40;91.30;;;;;;5134784;27;20031;-34
2023/12/06 07:40:11;;;;;;;16.38;10.18;;;5.40;91.30;;;;;;5134590;27;20058;-33
2023/12/06 07:42:38;;;;;;;19.92;11.05;;;5.40;91.30;;;;;;5134749;27;20059;-34
2023/12/06 07:45:05;;;;;;;17.23;11.25;;;5.50;91.40;;;;;;5133869;27;20023;-33
2023/12/06 07:47:30;;;;;;;15.25;10.55;;;5.40;91.40;;;;;;5134414;27;20470;-33
2023/12/06 07:49:56;;;;;;;19.30;11.82;;;5.40;91.30;;;;;;5134566;27;20075;-32
2023/12/06 07:52:21;;;;;;;15.27;10.70;;;5.40;91.30;;;;;;5134441;27;20027;-32
2023/12/06 07:54:47;;;;;;;19.05;11.68;;;5.40;91.30;;;;;;5134199;27;20027;-32
2023/12/06 07:57:13;;;;;;;16.25;11.43;;;5.40;91.30;;;;;;5134660;27;20555;-33
2023/12/06 07:59:38;;;;;;;16.08;10.77;;;5.40;91.40;;;;;;5134619;27;20098;-32
2023/12/06 08:02:04;;;;;;;17.95;11.65;;;5.40;91.40;;;;;;5132593;27;20140;-31
2023/12/06 08:04:30;;;;;;;16.42;10.27;;;5.40;91.40;;;;;;5133995;27;20026;-33
2023/12/06 08:06:55;;;;;;;14.32;10.20;;;5.40;91.40;;;;;;5133967;27;20016;-32
2023/12/06 08:09:22;;;;;;;16.05;10.25;;;5.40;91.40;;;;;;5134094;27;20090;-32
2023/12/06 08:11:48;;;;;;;15.75;10.50;;;5.40;91.40;;;;;;5134484;27;20100;-33
2023/12/06 08:14:14;;;;;;;16.10;10.25;;;5.40;91.40;;;;;;5132798;27;20027;-30
2023/12/06 08:16:39;;;;;;;14.70;10.88;;;5.40;91.40;;;;;;5133904;27;20053;-33
2023/12/06 08:19:05;;;;;;;16.20;10.85;;;5.40;91.40;;;;;;5134012;27;20047;-33
2023/12/06 08:21:30;;;;;;;15.15;9.82;;;5.40;91.40;;;;;;5134538;27;20078;-33
2023/12/06 08:23:56;;;;;;;17.35;11.05;;;5.40;91.40;;;;;;5134526;27;20023;-32
2023/12/06 08:26:21;;;;;;;16.45;10.35;;;5.40;91.30;;;;;;5133783;27;20024;-32
2023/12/06 08:28:47;;;;;;;16.40;10.25;;;5.40;91.40;;;;;;5133875;27;20031;-33
2023/12/06 08:31:13;;;;;;;15.45;10.20;;;5.40;91.40;;;;;;5133623;27;20039;-33
2023/12/06 08:33:38;;;;;;;16.30;10.60;;;5.40;91.40;;;;;;5133925;27;20076;-33
2023/12/06 08:36:04;;;;;;;15.13;9.95;;;5.40;91.30;;;;;;5133649;27;20372;-32
2023/12/06 08:38:30;;;;;;;15.43;10.07;;;5.40;91.40;;;;;;5133342;27;20027;-33
2023/12/06 08:40:56;;;;;;;16.48;9.73;;;5.40;91.40;;;;;;5133847;27;20027;-31
2023/12/06 08:43:21;;;;;;;18.27;10.95;;;5.50;91.40;;;;;;5133606;27;20027;-33
2023/12/06 08:45:47;;;;;;;13.15;9.43;;;5.50;91.60;;;;;;5133795;27;20034;-33
2023/12/06 08:48:12;;;;;;;20.05;9.60;;;5.50;91.30;;;;;;5133256;27;20035;-32
2023/12/06 08:50:38;;;;;;;14.10;10.15;;;5.50;91.30;;;;;;5133158;27;20019;-33
2023/12/06 08:53:04;;;;;;;16.70;9.40;;;5.60;91.40;;;;;;5133342;27;20031;-32
2023/12/06 08:55:29;;;;;;;15.52;9.25;;;5.60;91.40;;;;;;5132718;27;20023;-34
2023/12/06 08:57:55;;;;;;;13.43;9.25;;;5.60;91.30;;;;;;5133259;27;20058;-33
2023/12/06 09:00:20;;;;;;;13.27;9.02;;;5.70;91.30;;;;;;5132982;27;20034;-32
2023/12/06 09:02:46;;;;;;;11.30;8.38;;;5.70;91.30;;;;;;5133010;27;20023;-33
2023/12/06 09:05:12;;;;;;;12.82;7.90;;;5.70;91.30;;;;;;5132850;27;20023;-31
2023/12/06 09:07:38;;;;;;;12.88;8.27;;;5.70;91.20;;;;;;5132995;27;20092;-35
2023/12/06 09:10:04;;;;;;;14.32;9.05;;;5.70;91.20;;;;;;5132722;27;20027;-32
2023/12/06 09:12:31;;;;;;;15.35;8.57;;;5.80;91.20;;;;;;5132974;27;20054;-33
2023/12/06 09:14:56;;;;;;;12.40;8.13;;;5.80;91.20;;;;;;5132957;27;20522;-32
2023/12/06 09:17:22;;;;;;;11.02;7.80;;;5.80;91.20;;;;;;5132975;27;20027;-33
2023/12/06 09:19:48;;;;;;;16.13;7.40;;;5.80;91.20;;;;;;5132551;27;20023;-33
2023/12/06 09:22:15;;;;;;;14.20;8.13;;;5.80;91.20;;;;;;5133243;27;20027;-33
2023/12/06 09:24:42;;;;;;;12.35;8.30;;;5.80;91.10;;;;;;5132820;27;20424;-33
2023/12/06 09:27:08;;;;;;;10.63;8.00;;;5.80;91.10;;;;;;5132868;27;20405;-33
2023/12/06 09:29:33;;;;;;;12.20;8.25;;;5.80;91.10;;;;;;5131230;27;20034;-33
2023/12/06 09:31:59;;;;;;;14.93;10.18;;;5.80;91.10;;;;;;5132404;27;20071;-35
2023/12/06 09:34:24;;;;;;;12.07;8.52;;;5.80;91.10;;;;;;5133035;27;20031;-33
2023/12/06 09:36:50;;;;;;;14.48;8.57;;;5.80;91.10;;;;;;5132542;27;20042;-34
2023/12/06 09:39:20;;;;;;;10.75;8.00;;;5.90;91.10;;;;;;5132999;27;20066;-32
2023/12/06 09:41:46;;;;;;;11.73;8.07;;;5.80;91.00;;;;;;5132571;27;20511;-33
2023/12/06 09:44:12;;;;;;;13.77;8.95;;;5.90;91.10;;;;;;5132628;27;20023;-33
2023/12/06 09:46:37;;;;;;;14.02;9.27;;;5.90;91.00;;;;;;5132233;27;20023;-32
2023/12/06 09:49:03;;;;;;;10.88;8.07;;;5.90;91.00;;;;;;5132651;27;20463;-33
2023/12/06 09:51:29;;;;;;;12.02;8.00;;;6.00;91.00;;;;;;5132219;27;20027;-33
2023/12/06 09:53:55;;;;;;;12.02;7.93;;;5.90;90.90;;;;;;5132438;27;20023;-32
2023/12/06 09:56:21;;;;;;;12.63;8.15;;;5.90;90.90;;;;;;5132289;27;20087;-33
2023/12/06 09:58:46;;;;;;;13.38;8.70;;;5.90;90.90;;;;;;5132249;27;20027;-33
2023/12/06 10:01:12;;;;;;;12.73;8.20;;;6.00;90.90;;;;;;5132007;27;20026;-31
2023/12/06 10:03:38;;;;;;;13.57;8.35;;;6.00;91.20;;;;;;5132265;27;20106;-33
2023/12/06 10:06:04;;;;;;;12.38;8.77;;;6.00;90.90;;;;;;5132305;27;20062;-33
2023/12/06 10:08:34;;;;;;;14.15;9.25;;;6.10;90.90;;;;;;5135763;27;20023;-33
2023/12/06 10:11:07;;;;;;;14.30;8.77;;;6.10;90.80;;;;;;5136726;27;20042;-32
2023/12/06 10:13:37;;;;;;;;;;;6.10;90.80;;;;;;5136857;27;20030;-33
2023/12/06 10:16:11;;;;;;;16.67;10.02;;;6.10;90.80;;;;;;5136404;27;19914;-34
2023/12/06 10:18:37;;;;;;;14.45;8.75;;;6.10;90.80;;;;;;5136320;27;20451;-34
2023/12/06 10:21:03;;;;;;;14.38;8.65;;;6.10;90.70;;;;;;5136567;27;20337;-32
2023/12/06 10:23:30;;;;;;;12.68;8.73;;;6.10;90.70;;;;;;5136181;27;20066;-33
2023/12/06 10:25:56;;;;;;;13.23;8.65;;;6.10;90.70;;;;;;5136283;27;20016;-33
2023/12/06 10:28:21;;;;;;;12.82;7.97;;;6.10;90.70;;;;;;5136172;27;20026;-32
2023/12/06 10:30:47;;;;;;;12.40;8.52;;;6.10;90.80;;;;;;5135727;27;20078;-33
2023/12/06 10:33:14;;;;;;;12.60;8.52;;;6.10;90.80;;;;;;5136365;27;20039;-32
2023/12/06 10:35:41;;;;;;;8.98;7.38;;;6.10;90.80;;;;;;5135885;27;20114;-33
2023/12/06 10:38:08;;;;;;;11.80;8.13;;;6.10;90.80;;;;;;5135796;27;20027;-33
2023/12/06 10:40:34;;;;;;;13.73;8.30;;;6.20;90.80;;;;;;5135936;27;20474;-33
2023/12/06 10:43:07;;;;;;;11.50;8.52;;;6.20;90.70;;;;;;5135652;27;20034;-33
2023/12/06 10:45:33;;;;;;;13.18;8.68;;;6.20;90.70;;;;;;5135678;27;20038;-33
2023/12/06 10:48:01;;;;;;;15.63;9.23;;;6.30;90.70;;;;;;5135633;27;20375;-33
2023/12/06 10:50:29;;;;;;;17.20;9.38;;;6.30;90.60;;;;;;5135461;27;20529;-32
2023/12/06 10:52:55;;;;;;;11.73;8.20;;;6.30;90.60;;;;;;5135645;27;20034;-32
2023/12/06 10:55:22;;;;;;;12.38;8.98;;;6.30;90.50;;;;;;5135477;27;20027;-33
2023/12/06 10:57:50;;;;;;;13.00;8.07;;;6.40;90.50;;;;;;5135642;27;20080;-33
2023/12/06 11:00:17;;;;;;;11.90;8.38;;;6.40;90.50;;;;;;5135631;27;20038;-33
2023/12/06 11:02:43;;;;;;;13.02;8.70;;;6.40;90.50;;;;;;5135400;27;20068;-33
2023/12/06 11:05:10;;;;;;;15.65;8.73;;;6.40;90.40;;;;;;5135220;27;20413;-34
2023/12/06 11:08:00;;;;;;;13.00;7.63;;;6.40;90.40;;;;;;5135019;27;20022;-32
2023/12/06 11:10:55;;;;;;;13.05;8.50;;;6.40;90.40;;;;;;5135194;27;20035;-33
2023/12/06 11:13:29;;;;;;;13.27;8.10;;;6.40;90.20;;;;;;5135624;27;20512;-34
2023/12/06 11:16:26;;;;;;;14.55;9.25;;;6.40;90.10;;;;;;5135070;27;20076;-33
2023/12/06 11:18:52;;;;;;;12.52;7.90;;;6.40;90.00;;;;;;5134415;27;20023;-33
2023/12/06 11:21:22;;;;;;;12.20;8.38;;;6.40;90.10;;;;;;5135086;27;20296;-32
2023/12/06 11:23:48;;;;;;;14.07;7.60;;;6.40;89.90;;;;;;5135297;27;20042;-33
2023/12/06 11:26:14;;;;;;;10.00;7.30;;;6.40;89.90;;;;;;5135265;27;20463;-32
2023/12/06 11:28:41;;;;;;;10.80;7.32;;;6.40;89.80;;;;;;5134944;27;20023;-32
2023/12/06 11:31:07;;;;;;;11.05;7.40;;;6.50;89.20;;;;;;5134743;27;20039;-33
2023/12/06 11:33:34;;;;;;;11.52;7.55;;;6.50;89.20;;;;;;5134931;27;20031;-32
2023/12/06 11:35:59;;;;;;;9.95;7.07;;;6.50;89.20;;;;;;5133537;27;20057;-33
2023/12/06 11:38:35;;;;;;;10.18;7.00;;;6.60;89.20;;;;;;5134865;27;20023;-33
2023/12/06 11:41:02;;;;;;;10.27;7.32;;;6.60;89.20;;;;;;5134914;27;20442;-33
2023/12/06 11:43:37;;;;;;;8.70;6.80;;;6.70;89.20;;;;;;5134903;27;20019;-33
2023/12/06 11:46:14;;;;;;;10.60;7.60;;;6.70;89.00;;;;;;5135017;27;20065;-32
2023/12/06 11:48:41;;;;;;;9.45;6.63;;;6.80;88.80;;;;;;5134623;27;20027;-33
2023/12/06 11:51:07;;;;;;;11.13;7.30;;;6.80;88.80;;;;;;5133107;27;20034;-33
2023/12/06 11:53:36;;;;;;;9.75;6.97;;;6.80;88.30;;;;;;5134454;27;20050;-32
2023/12/06 11:56:02;;;;;;;8.48;6.53;;;6.80;88.20;;;;;;5134613;27;20482;-33
2023/12/06 11:58:31;;;;;;;8.82;6.90;;;6.70;88.20;;;;;;5134392;27;20035;-33
2023/12/06 12:00:59;;;;;;;11.95;7.35;;;6.70;88.40;;;;;;5134473;27;20542;-33
2023/12/06 12:03:26;;;;;;;10.25;7.07;;;6.80;88.50;;;;;;5134071;27;20038;-33
2023/12/06 12:05:53;;;;;;;10.07;7.07;;;6.90;88.40;;;;;;5134528;27;20113;-34
2023/12/06 12:08:19;;;;;;;8.88;6.78;;;6.90;88.00;;;;;;5134638;27;20036;-32
2023/12/06 12:10:46;;;;;;;10.30;6.75;;;6.90;88.00;;;;;;5133813;27;20019;-32
2023/12/06 12:13:18;;;;;;;9.38;6.68;;;7.00;88.00;;;;;;5134175;27;20081;-33
2023/12/06 12:16:01;;;;;;;11.37;7.27;;;7.10;87.90;;;;;;5134039;27;20087;-32
2023/12/06 12:18:28;;;;;;;11.75;7.70;;;7.10;87.70;;;;;;5133745;27;20318;-32
2023/12/06 12:20:55;;;;;;;9.02;7.13;;;7.10;87.30;;;;;;5134054;27;20150;-32
2023/12/06 12:23:21;;;;;;;10.98;7.93;;;7.10;86.80;;;;;;5134039;27;20057;-33
2023/12/06 12:25:50;;;;;;;11.68;7.05;;;7.10;87.00;;;;;;5133905;27;20042;-33
2023/12/06 12:28:21;;;;;;;10.75;7.57;;;7.10;87.00;;;;;;5134019;27;20654;-33
2023/12/06 12:30:51;;;;;;;10.10;7.07;;;7.10;86.80;;;;;;5133429;27;20054;-33
2023/12/06 12:33:18;;;;;;;11.55;8.00;;;7.20;86.80;;;;;;5133694;27;20023;-33
2023/12/06 12:35:44;;;;;;;11.60;7.25;;;7.20;86.70;;;;;;5133804;27;20418;-32